Time;durP1;ratioP1;P1;durP2;ratioP2;P2;SDS_P1;SDS_P2;PMS_P1;PMS_P2;Temp;Humidity;BMP_temperature;BMP_pressure;BME280_temperature;BME280_humidity;BME280_pressure;Samples;Min_cycle;Max_cycle;Signal;HPM_P1;HPM_P2
2023/08/01 00:00:13;;;;;;;3.83;3.20;;;;;;;18.48;75.97;97009.66;5035642;28;20448;-75
2023/08/01 00:02:42;;;;;;;5.03;3.50;;;;;;;18.38;76.55;97005.00;5038901;28;21062;-74
2023/08/01 00:05:09;;;;;;;4.33;3.70;;;;;;;18.23;77.36;97006.94;5043904;28;20444;-76
2023/08/01 00:07:36;;;;;;;4.33;3.97;;;;;;;18.23;78.61;97009.69;5034029;28;20452;-76
2023/08/01 00:10:05;;;;;;;5.50;4.07;;;;;;;18.18;79.07;97004.25;5029456;28;20442;-75
2023/08/01 00:12:31;;;;;;;4.63;4.23;;;;;;;18.15;79.74;97002.06;5029128;28;20456;-76
2023/08/01 00:14:58;;;;;;;5.10;4.00;;;;;;;17.96;80.29;96990.81;5028773;28;20452;-75
2023/08/01 00:17:25;;;;;;;5.37;4.30;;;;;;;17.93;81.17;96997.66;5028854;28;20479;-76
2023/08/01 00:19:52;;;;;;;4.43;3.93;;;;;;;17.94;81.55;96991.09;5032474;28;20533;-76
2023/08/01 00:22:19;;;;;;;4.67;4.27;;;;;;;17.82;82.04;96996.06;5033171;28;20526;-76
2023/08/01 00:24:47;;;;;;;4.60;3.97;;;;;;;17.89;82.05;96980.16;5027942;28;20480;-75
2023/08/01 00:27:15;;;;;;;6.37;4.40;;;;;;;17.75;82.38;96979.06;5028028;28;21358;-76
2023/08/01 00:29:42;;;;;;;5.83;4.57;;;;;;;17.69;83.11;96977.44;5030410;28;20935;-76
2023/08/01 00:32:09;;;;;;;4.10;3.80;;;;;;;17.53;83.89;96979.31;5021714;28;20445;-76
2023/08/01 00:34:36;;;;;;;6.20;4.90;;;;;;;17.67;84.32;96968.66;5028880;28;20490;-75
2023/08/01 00:37:02;;;;;;;6.60;4.80;;;;;;;17.62;84.67;96972.19;5027163;28;20480;-76
2023/08/01 00:39:29;;;;;;;5.03;4.30;;;;;;;17.25;86.33;96942.34;5028582;28;20550;-76
2023/08/01 00:41:56;;;;;;;6.23;5.20;;;;;;;17.23;87.55;96924.56;5025888;28;20451;-76
2023/08/01 00:44:24;;;;;;;6.63;4.90;;;;;;;17.22;87.78;96929.22;5033103;28;20486;-75
2023/08/01 00:46:51;;;;;;;6.23;5.53;;;;;;;17.17;87.97;96922.94;5028413;28;20876;-77
2023/08/01 00:49:18;;;;;;;5.40;4.73;;;;;;;17.14;87.65;96916.09;5026218;28;21564;-75
2023/08/01 00:51:45;;;;;;;6.87;5.27;;;;;;;17.22;87.24;96906.53;5024881;28;20944;-76
2023/08/01 00:54:12;;;;;;;6.50;5.50;;;;;;;17.12;88.70;96893.69;5033273;28;20454;-76
2023/08/01 00:56:39;;;;;;;5.40;4.90;;;;;;;16.93;88.57;96889.81;5019551;28;20457;-75
2023/08/01 00:59:06;;;;;;;6.00;5.50;;;;;;;16.98;89.08;96898.84;5024275;28;20479;-76
2023/08/01 01:01:34;;;;;;;6.97;5.40;;;;;;;17.05;88.56;96893.13;5025621;28;20459;-76
2023/08/01 01:04:01;;;;;;;6.20;5.60;;;;;;;17.11;87.80;96886.56;5027755;28;20524;-76
2023/08/01 01:06:33;;;;;;;5.87;4.93;;;;;;;17.03;88.12;96876.16;5029410;28;21115;-76
2023/08/01 01:09:00;;;;;;;7.30;5.43;;;;;;;17.07;87.34;96874.53;5021365;28;20506;-76
2023/08/01 01:11:26;;;;;;;5.43;4.93;;;;;;;17.12;87.25;96867.16;5024252;28;20464;-77
2023/08/01 01:13:53;;;;;;;5.80;5.27;;;;;;;17.06;87.46;96861.94;5029829;28;20510;-77
2023/08/01 01:16:20;;;;;;;5.70;4.77;;;;;;;17.14;86.05;96866.88;5028850;28;20496;-76
2023/08/01 01:18:48;;;;;;;5.30;4.80;;;;;;;17.26;84.93;96867.41;5026952;28;20479;-76
2023/08/01 01:21:17;;;;;;;6.57;4.43;;;;;;;17.33;84.18;96859.75;5021028;28;20460;-76
2023/08/01 01:23:44;;;;;;;5.10;4.53;;;;;;;17.35;83.96;96860.31;5017764;28;20971;-76
2023/08/01 01:26:11;;;;;;;4.73;4.23;;;;;;;17.44;83.16;96858.66;5018609;28;21122;-77
2023/08/01 01:28:38;;;;;;;5.27;4.00;;;;;;;17.48;83.12;96867.16;5032203;28;20481;-76
2023/08/01 01:31:06;;;;;;;5.60;4.77;;;;;;;17.55;82.70;96858.63;5024985;28;22316;-76
2023/08/01 01:33:33;;;;;;;4.77;4.30;;;;;;;17.50;83.12;96867.69;5030529;28;20468;-76
2023/08/01 01:36:01;;;;;;;5.00;4.27;;;;;;;17.51;83.85;96860.31;5024530;28;20522;-77
2023/08/01 01:38:30;;;;;;;5.00;4.40;;;;;;;17.34;83.28;96861.41;5029123;28;20567;-77
2023/08/01 01:40:56;;;;;;;9.37;4.50;;;;;;;17.23;83.98;96857.03;5022524;28;20884;-76
2023/08/01 01:43:23;;;;;;;4.83;4.43;;;;;;;17.14;84.88;96872.34;5028354;28;20456;-77
2023/08/01 01:45:50;;;;;;;4.70;4.30;;;;;;;17.08;84.42;96870.69;5027847;28;21077;-77
2023/08/01 01:48:17;;;;;;;5.13;4.73;;;;;;;17.02;85.78;96847.19;5021545;28;20500;-78
2023/08/01 01:50:43;;;;;;;5.90;5.30;;;;;;;16.96;86.34;96840.88;5018379;28;20998;-77
2023/08/01 01:53:10;;;;;;;5.77;5.17;;;;;;;17.09;85.03;96832.16;5032892;28;20502;-77
2023/08/01 01:55:39;;;;;;;5.97;4.87;;;;;;;17.10;84.85;96830.25;5029618;28;21018;-77
2023/08/01 01:58:07;;;;;;;6.07;5.30;;;;;;;17.13;85.47;96810.56;5029770;28;20478;-77
2023/08/01 02:00:33;;;;;;;5.80;4.87;;;;;;;17.05;86.24;96819.31;5023249;28;20503;-77
2023/08/01 02:03:02;;;;;;;5.57;4.90;;;;;;;17.03;86.16;96805.09;5024070;28;20452;-77
2023/08/01 02:05:29;;;;;;;5.40;4.90;;;;;;;17.18;85.46;96805.09;5026872;28;20498;-77
2023/08/01 02:07:56;;;;;;;5.47;4.97;;;;;;;17.19;85.80;96809.47;5029774;28;20587;-77
2023/08/01 02:10:23;;;;;;;6.00;5.30;;;;;;;17.05;85.47;96828.31;5032900;28;20955;-76
2023/08/01 02:12:51;;;;;;;7.50;5.30;;;;;;;17.14;85.57;96836.81;5022718;28;20455;-77
2023/08/01 02:15:18;;;;;;;6.23;5.63;;;;;;;17.33;85.26;96818.72;5025313;28;20456;-76
2023/08/01 02:17:45;;;;;;;5.50;5.00;;;;;;;17.44;86.22;96816.81;5025164;28;20877;-77
2023/08/01 02:20:12;;;;;;;5.53;5.03;;;;;;;17.41;85.55;96820.91;5028753;28;20542;-77
2023/08/01 02:22:39;;;;;;;6.33;5.00;;;;;;;17.42;86.06;96808.88;5030501;28;20456;-76
2023/08/01 02:25:06;;;;;;;6.80;5.30;;;;;;;17.50;84.28;96799.31;5034181;28;20459;-76
2023/08/01 02:27:33;;;;;;;5.70;5.10;;;;;;;17.34;84.70;96808.63;5028558;28;20472;-76
2023/08/01 02:30:02;;;;;;;5.67;5.10;;;;;;;17.33;85.04;96807.78;5024109;28;20452;-76
2023/08/01 02:32:28;;;;;;;5.77;5.10;;;;;;;17.28;85.35;96809.72;5025822;28;20463;-77
2023/08/01 02:34:55;;;;;;;5.67;5.17;;;;;;;17.16;86.87;96807.28;5023824;28;20476;-76
2023/08/01 02:37:22;;;;;;;7.30;6.60;;;;;;;17.05;88.06;96811.09;5028809;28;20487;-76
2023/08/01 02:39:49;;;;;;;6.93;5.70;;;;;;;17.10;88.60;96814.66;5028604;28;20506;-75
2023/08/01 02:42:15;;;;;;;7.47;5.80;;;;;;;17.06;88.05;96802.63;5025029;28;20471;-76
2023/08/01 02:44:42;;;;;;;6.70;5.60;;;;;;;17.07;89.46;96797.97;5024909;28;21065;-76
2023/08/01 02:47:11;;;;;;;6.73;6.10;;;;;;;17.17;88.87;96797.97;5028595;28;20480;-75
2023/08/01 02:49:38;;;;;;;8.30;6.03;;;;;;;17.34;88.02;96795.75;5026172;28;20455;-75
2023/08/01 02:52:05;;;;;;;6.07;5.50;;;;;;;17.06;88.75;96786.22;5025467;28;21077;-76
2023/08/01 02:54:32;;;;;;;6.27;5.67;;;;;;;17.08;88.96;96791.41;5026942;28;21251;-76
2023/08/01 02:56:58;;;;;;;5.50;5.00;;;;;;;17.13;88.19;96772.28;5031329;28;20453;-75
2023/08/01 02:59:25;;;;;;;6.20;5.70;;;;;;;17.02;88.77;96778.84;5024449;28;20491;-76
2023/08/01 03:01:52;;;;;;;5.70;5.20;;;;;;;16.86;89.86;96783.50;5022408;28;20500;-76
2023/08/01 03:04:20;;;;;;;6.30;5.73;;;;;;;16.96;90.43;96779.94;5030762;28;20448;-76
2023/08/01 03:06:47;;;;;;;6.20;5.53;;;;;;;16.92;90.76;96774.19;5026037;28;20564;-76
2023/08/01 03:09:14;;;;;;;6.37;5.77;;;;;;;16.92;90.88;96778.84;5028750;28;21005;-75
2023/08/01 03:11:42;;;;;;;6.67;6.07;;;;;;;16.91;90.83;96774.47;5028587;28;20459;-76
2023/08/01 03:14:09;;;;;;;7.77;6.27;;;;;;;17.00;89.83;96764.63;5029523;28;20453;-76
2023/08/01 03:16:36;;;;;;;5.77;5.30;;;;;;;16.97;90.05;96765.16;5026291;28;20447;-77
2023/08/01 03:19:05;;;;;;;5.70;4.97;;;;;;;16.93;89.75;96761.34;5021828;28;21031;-77
2023/08/01 03:21:34;;;;;;;6.47;5.80;;;;;;;16.88;89.99;96755.91;5023874;28;20456;-76
2023/08/01 03:24:00;;;;;;;6.00;5.50;;;;;;;16.92;90.31;96762.44;5025943;28;20452;-77
2023/08/01 03:26:29;;;;;;;5.80;5.30;;;;;;;17.00;89.34;96764.63;5023234;28;20583;-76
2023/08/01 03:28:56;;;;;;;5.97;5.47;;;;;;;17.11;88.73;96763.53;5027597;28;20555;-76
2023/08/01 03:31:23;;;;;;;7.10;5.90;;;;;;;17.10;88.86;96775.56;5027279;28;20463;-77
2023/08/01 03:33:49;;;;;;;6.37;5.67;;;;;;;17.07;88.69;96773.38;5020936;28;21243;-77
2023/08/01 03:36:16;;;;;;;6.20;5.67;;;;;;;17.12;88.46;96751.50;5030509;28;20546;-76
2023/08/01 03:38:44;;;;;;;6.30;5.70;;;;;;;16.88;89.25;96756.72;5030704;28;20539;-77
2023/08/01 03:41:11;;;;;;;6.03;5.43;;;;;;;16.95;89.13;96750.94;5031302;28;20464;-77
2023/08/01 03:43:38;;;;;;;5.63;5.13;;;;;;;17.04;88.40;96760.25;5023840;28;20956;-77
2023/08/01 03:46:05;;;;;;;8.90;5.93;;;;;;;17.06;88.62;96749.84;5022927;28;20451;-77
2023/08/01 03:48:32;;;;;;;6.57;5.70;;;;;;;17.13;87.47;96736.72;5026636;28;20471;-77
2023/08/01 03:51:00;;;;;;;5.73;5.20;;;;;;;17.09;87.76;96741.13;5020892;28;20467;-76
2023/08/01 03:53:27;;;;;;;5.20;4.70;;;;;;;17.21;87.12;96747.13;5022840;28;20471;-77
2023/08/01 03:55:55;;;;;;;5.67;5.17;;;;;;;17.31;86.21;96741.59;5025689;28;20449;-76
2023/08/01 03:58:22;;;;;;;7.03;5.50;;;;;;;17.24;86.26;96741.06;5030251;28;20578;-76
2023/08/01 04:00:49;;;;;;;5.53;5.03;;;;;;;17.27;85.45;96720.56;5029524;28;20452;-76
2023/08/01 04:03:16;;;;;;;5.20;4.70;;;;;;;17.41;84.12;96707.94;5029778;28;20523;-76
2023/08/01 04:05:43;;;;;;;6.70;5.00;;;;;;;17.45;84.08;96707.13;5024759;28;20829;-76
2023/08/01 04:08:09;;;;;;;6.47;4.40;;;;;;;17.58;82.94;96700.22;5028852;28;20476;-76
2023/08/01 04:10:36;;;;;;;5.27;3.90;;;;;;;17.66;80.78;96675.03;5022035;28;20543;-76
2023/08/01 04:13:04;;;;;;;5.30;3.73;;;;;;;17.71;80.99;96639.44;5027503;28;20451;-76
2023/08/01 04:15:31;;;;;;;3.80;3.50;;;;;;;17.74;81.02;96627.13;5022518;28;20862;-77
2023/08/01 04:17:58;;;;;;;4.07;3.67;;;;;;;17.75;79.92;96584.97;5031260;28;20560;-77
2023/08/01 04:20:25;;;;;;;4.17;3.60;;;;;;;17.69;80.79;96591.56;5029930;28;21116;-76
2023/08/01 04:22:52;;;;;;;4.80;3.83;;;;;;;17.64;80.94;96605.25;5021761;28;20449;-77
2023/08/01 04:25:18;;;;;;;4.57;3.50;;;;;;;17.71;80.70;96611.25;5027721;28;20483;-76
2023/08/01 04:27:45;;;;;;;5.40;3.73;;;;;;;17.73;80.41;96620.00;5025991;28;20508;-76
2023/08/01 04:30:13;;;;;;;5.67;3.50;;;;;;;17.80;78.38;96639.69;5029945;28;20463;-77
2023/08/01 04:32:40;;;;;;;4.53;3.10;;;;;;;18.01;77.92;96629.41;5031420;28;20536;-76
2023/08/01 04:35:08;;;;;;;4.23;3.30;;;;;;;18.06;78.00;96611.03;5021654;28;20453;-77
2023/08/01 04:37:34;;;;;;;4.00;3.60;;;;;;;18.07;77.85;96601.72;5022615;28;20595;-77
2023/08/01 04:40:01;;;;;;;3.43;2.97;;;;;;;18.21;76.13;96609.25;5026026;28;20562;-77
2023/08/01 04:42:30;;;;;;;4.60;3.63;;;;;;;18.32;75.37;96605.34;5025668;28;20514;-77
2023/08/01 04:44:57;;;;;;;4.10;3.07;;;;;;;18.42;74.06;96616.22;5025221;28;20472;-76
2023/08/01 04:47:25;;;;;;;3.27;3.00;;;;;;;18.50;73.35;96626.56;5030792;28;20475;-77
2023/08/01 04:49:52;;;;;;;3.47;3.17;;;;;;;18.61;72.80;96625.38;5028452;28;21019;-78
2023/08/01 04:52:18;;;;;;;3.53;3.23;;;;;;;18.54;74.40;96652.25;5021269;28;20840;-75
2023/08/01 04:54:46;;;;;;;4.90;4.00;;;;;;;18.38;75.37;96664.47;5016972;28;20445;-77
2023/08/01 04:57:12;;;;;;;3.93;3.20;;;;;;;18.45;76.97;96681.41;5031754;28;20496;-77
2023/08/01 04:59:39;;;;;;;4.00;3.50;;;;;;;18.37;77.48;96691.03;5024959;28;20510;-76
2023/08/01 05:02:06;;;;;;;4.40;3.47;;;;;;;18.41;77.05;96694.84;5029305;28;20452;-76
2023/08/01 05:04:34;;;;;;;4.50;4.10;;;;;;;18.43;77.50;96676.22;5024249;28;20508;-76
2023/08/01 05:07:01;;;;;;;4.93;3.67;;;;;;;18.36;77.96;96677.63;5027268;28;20526;-77
2023/08/01 05:09:28;;;;;;;4.87;4.47;;;;;;;17.96;78.14;96712.38;5022956;28;20450;-75
2023/08/01 05:11:55;;;;;;;3.90;3.50;;;;;;;18.12;77.45;96711.22;5029182;28;20455;-76
2023/08/01 05:14:22;;;;;;;3.90;3.60;;;;;;;18.36;75.95;96705.84;5028830;28;20456;-90
2023/08/01 05:16:49;;;;;;;3.50;3.20;;;;;;;18.24;76.16;96682.63;5018829;28;20489;-90
2023/08/01 05:19:16;;;;;;;3.63;3.23;;;;;;;18.09;75.80;96692.59;4998585;28;20476;-74
2023/08/01 05:21:46;;;;;;;3.17;2.97;;;;;;;18.11;76.04;96668.50;5026529;28;20463;-75
2023/08/01 05:24:12;;;;;;;4.33;3.47;;;;;;;18.38;75.25;96653.50;5029344;28;21088;-76
2023/08/01 05:26:39;;;;;;;3.40;3.10;;;;;;;18.42;74.98;96655.41;5038270;28;20541;-73
2023/08/01 05:29:06;;;;;;;3.07;2.77;;;;;;;18.29;75.44;96660.69;5032661;28;22469;-77
2023/08/01 05:31:33;;;;;;;3.07;2.80;;;;;;;18.26;75.42;96672.22;5025134;28;20576;-76
2023/08/01 05:34:00;;;;;;;3.40;3.10;;;;;;;18.28;75.61;96645.34;5024950;28;20519;-76
2023/08/01 05:36:27;;;;;;;3.20;2.90;;;;;;;18.15;75.64;96648.75;5022212;28;21145;-75
2023/08/01 05:38:55;;;;;;;3.40;2.67;;;;;;;18.09;75.87;96665.22;5029074;28;20599;-75
2023/08/01 05:41:22;;;;;;;3.47;3.17;;;;;;;18.11;75.62;96664.94;5024304;28;20473;-75
2023/08/01 05:43:49;;;;;;;3.83;3.13;;;;;;;18.21;75.50;96661.28;5021316;28;21019;-75
2023/08/01 05:46:16;;;;;;;4.10;3.60;;;;;;;18.42;75.15;96660.88;5026120;28;21497;-76
2023/08/01 05:48:43;;;;;;;3.10;2.80;;;;;;;18.36;75.04;96666.69;5020521;28;20506;-76
2023/08/01 05:51:09;;;;;;;3.40;2.83;;;;;;;18.32;75.32;96665.59;5026380;28;20561;-76
2023/08/01 05:53:36;;;;;;;6.10;3.43;;;;;;;18.35;75.44;96676.81;5021380;28;20444;-77
2023/08/01 05:56:05;;;;;;;3.80;2.80;;;;;;;18.27;75.54;96673.84;5019506;28;20544;-77
2023/08/01 05:58:32;;;;;;;3.40;3.03;;;;;;;18.56;75.15;96673.91;5024841;28;20486;-76
2023/08/01 06:00:58;;;;;;;5.10;3.73;;;;;;;18.43;75.43;96683.63;5022124;28;20978;-76
2023/08/01 06:03:25;;;;;;;4.93;3.30;;;;;;;18.41;76.21;96666.63;5023936;28;21048;-76
2023/08/01 06:05:52;;;;;;;3.50;3.20;;;;;;;18.40;74.98;96675.97;5028550;28;20543;-76
2023/08/01 06:08:19;;;;;;;4.03;3.53;;;;;;;18.43;75.31;96680.88;5025344;28;20511;-76
2023/08/01 06:10:46;;;;;;;4.03;3.30;;;;;;;18.38;75.17;96691.88;5029819;28;21468;-75
2023/08/01 06:13:15;;;;;;;5.17;3.40;;;;;;;18.39;75.04;96688.84;5019916;28;21019;-77
2023/08/01 06:15:41;;;;;;;4.13;3.73;;;;;;;18.57;75.10;96672.81;5008514;28;20458;-77
2023/08/01 06:18:10;;;;;;;4.50;3.77;;;;;;;18.64;74.22;96681.53;5016366;28;20463;-77
2023/08/01 06:20:37;;;;;;;6.00;3.80;;;;;;;18.58;72.97;96680.72;5026025;28;20555;-77
2023/08/01 06:23:04;;;;;;;4.13;3.63;;;;;;;18.68;72.79;96694.41;5026451;28;20456;-77
2023/08/01 06:25:31;;;;;;;5.93;3.70;;;;;;;18.62;72.70;96686.50;5028677;28;20887;-77
2023/08/01 06:27:57;;;;;;;3.97;3.60;;;;;;;18.58;72.74;96708.13;5022482;28;20476;-79
2023/08/01 06:30:26;;;;;;;4.10;3.70;;;;;;;18.51;72.98;96720.56;5028157;28;20947;-78
2023/08/01 06:32:52;;;;;;;4.67;4.00;;;;;;;18.04;77.30;96709.06;5021830;28;20555;-78
2023/08/01 06:35:20;;;;;;;5.10;4.23;;;;;;;17.55;78.99;96733.59;5015071;28;20456;-77
2023/08/01 06:37:47;;;;;;;5.00;4.60;;;;;;;17.23;81.37;96742.16;5023347;28;21358;-79
2023/08/01 06:40:14;;;;;;;4.63;4.13;;;;;;;17.05;82.31;96745.50;5018145;28;20491;-79
2023/08/01 06:42:42;;;;;;;6.47;5.87;;;;;;;16.86;84.15;96742.50;5016740;28;20462;-78
2023/08/01 06:45:10;;;;;;;6.03;5.13;;;;;;;16.65;85.83;96740.84;5017421;28;20514;-78
2023/08/01 06:47:39;;;;;;;6.40;5.70;;;;;;;16.70;86.00;96738.94;5025284;28;20852;-79
2023/08/01 06:50:06;;;;;;;6.03;5.43;;;;;;;16.52;86.82;96736.75;5027599;28;20464;-79
2023/08/01 06:52:33;;;;;;;6.33;5.70;;;;;;;16.58;87.03;96746.53;5021742;28;22528;-79
2023/08/01 06:55:00;;;;;;;6.83;5.80;;;;;;;16.47;87.39;96717.59;5024820;28;20518;-79
2023/08/01 06:57:27;;;;;;;6.53;5.93;;;;;;;16.52;87.48;96712.16;5021624;28;20476;-79
2023/08/01 06:59:54;;;;;;;6.70;6.00;;;;;;;16.43;87.91;96705.59;5023172;28;20798;-79
2023/08/01 07:02:21;;;;;;;9.23;6.10;;;;;;;16.43;87.96;96705.59;5019168;28;20539;-79
2023/08/01 07:04:49;;;;;;;6.50;5.80;;;;;;;16.40;87.64;96695.19;5024542;28;20449;-79
2023/08/01 07:07:15;;;;;;;6.60;6.00;;;;;;;16.37;87.86;96690.28;5023907;28;20468;-79
2023/08/01 07:09:42;;;;;;;6.50;5.90;;;;;;;16.36;87.67;96691.38;5022890;28;20563;-79
2023/08/01 07:12:09;;;;;;;7.70;6.53;;;;;;;16.56;87.40;96683.19;5022959;28;20539;-79
2023/08/01 07:14:36;;;;;;;5.93;5.33;;;;;;;16.52;88.67;96689.47;5024832;28;20487;-76
2023/08/01 07:17:03;;;;;;;6.70;6.10;;;;;;;16.73;88.72;96672.81;5023016;28;20476;-78
2023/08/01 07:19:30;;;;;;;6.80;5.90;;;;;;;16.60;88.05;96695.19;5023711;28;20591;-77
2023/08/01 07:21:58;;;;;;;6.57;5.73;;;;;;;16.62;85.03;96694.91;5022693;28;20463;-78
2023/08/01 07:24:25;;;;;;;10.50;6.37;;;;;;;16.55;85.64;96692.50;5026730;28;20443;-78
2023/08/01 07:26:53;;;;;;;7.30;6.07;;;;;;;16.63;82.98;96694.66;5026586;28;20467;-78
2023/08/01 07:29:19;;;;;;;6.20;5.60;;;;;;;16.63;83.45;96727.44;5020311;28;20460;-79
2023/08/01 07:31:46;;;;;;;5.50;5.00;;;;;;;16.40;85.15;96704.22;5027334;28;20546;-78
2023/08/01 07:34:13;;;;;;;6.90;6.20;;;;;;;16.30;85.94;96703.38;5022941;28;20475;-78
2023/08/01 07:36:40;;;;;;;6.13;5.40;;;;;;;16.13;87.26;96709.91;5025680;28;20883;-78
2023/08/01 07:39:08;;;;;;;5.90;5.03;;;;;;;16.12;87.68;96711.00;5025822;28;20455;-79
2023/08/01 07:41:35;;;;;;;6.27;5.67;;;;;;;16.04;87.92;96714.25;5025910;28;20535;-77
2023/08/01 07:44:03;;;;;;;7.47;6.30;;;;;;;16.04;89.30;96702.53;5021786;28;20499;-79
2023/08/01 07:46:30;;;;;;;7.40;6.70;;;;;;;16.02;90.02;96691.06;5020613;28;20907;-78
2023/08/01 07:48:56;;;;;;;6.57;5.97;;;;;;;16.00;89.88;96701.41;5021810;28;20506;-78
2023/08/01 07:51:23;;;;;;;5.67;5.10;;;;;;;16.05;89.00;96699.53;5021132;28;20464;-78
2023/08/01 07:53:52;;;;;;;7.13;5.00;;;;;;;16.18;88.70;96709.13;5025486;28;20483;-77
2023/08/01 07:56:20;;;;;;;5.70;5.20;;;;;;;16.12;89.45;96727.38;5023720;28;20566;-78
2023/08/01 07:58:47;;;;;;;5.80;5.13;;;;;;;16.16;89.42;96726.84;5029329;28;20522;-77
2023/08/01 08:01:14;;;;;;;5.73;5.23;;;;;;;16.25;90.08;96709.66;5020846;28;20487;-78
2023/08/01 08:03:41;;;;;;;4.67;4.27;;;;;;;16.29;89.68;96699.81;5024549;28;21388;-77
2023/08/01 08:06:08;;;;;;;5.40;4.63;;;;;;;16.38;90.35;96698.19;5022276;28;21492;-77
2023/08/01 08:08:36;;;;;;;3.90;3.60;;;;;;;16.51;88.39;96693.31;5024189;28;20487;-78
2023/08/01 08:11:03;;;;;;;4.10;3.80;;;;;;;16.48;89.65;96702.84;5021702;28;20539;-77
2023/08/01 08:13:31;;;;;;;4.70;3.80;;;;;;;16.49;88.59;96701.78;5023010;28;20510;-77
2023/08/01 08:15:59;;;;;;;3.20;2.90;;;;;;;16.45;89.64;96715.16;5026993;28;20464;-77
2023/08/01 08:18:26;;;;;;;3.23;2.90;;;;;;;16.48;88.86;96719.25;5022543;28;20469;-78
2023/08/01 08:20:53;;;;;;;3.80;3.30;;;;;;;16.47;89.57;96712.16;5022677;28;20480;-77
2023/08/01 08:23:20;;;;;;;3.70;3.20;;;;;;;16.44;89.64;96704.50;5024285;28;20526;-78
2023/08/01 08:25:47;;;;;;;3.30;3.00;;;;;;;16.44;89.54;96701.75;5025320;28;20495;-78
2023/08/01 08:28:14;;;;;;;3.13;2.87;;;;;;;16.56;89.29;96710.53;5024843;28;20498;-77
2023/08/01 08:30:42;;;;;;;2.63;2.43;;;;;;;16.63;89.11;96711.03;5023510;28;20462;-77
2023/08/01 08:33:10;;;;;;;2.93;2.63;;;;;;;16.81;89.21;96703.44;5020228;28;20460;-76
2023/08/01 08:35:37;;;;;;;3.10;2.90;;;;;;;16.70;89.27;96706.16;5015470;28;20507;-77
2023/08/01 08:38:04;;;;;;;2.73;2.47;;;;;;;16.90;88.71;96697.09;5021905;28;20476;-78
2023/08/01 08:40:33;;;;;;;2.53;2.33;;;;;;;16.91;87.26;96709.69;5023831;28;20472;-78
2023/08/01 08:43:03;;;;;;;3.07;2.77;;;;;;;17.03;87.04;96703.94;5021017;28;20827;-78
2023/08/01 08:45:33;;;;;;;3.00;2.70;;;;;;;17.11;86.53;96700.66;5021688;28;20448;-77
2023/08/01 08:48:03;;;;;;;3.20;2.90;;;;;;;17.26;86.97;96697.84;5018285;28;20560;-78
2023/08/01 08:50:31;;;;;;;2.70;2.50;;;;;;;17.45;86.29;96689.88;5019498;28;20465;-77
2023/08/01 08:52:58;;;;;;;2.63;2.43;;;;;;;17.61;84.50;96687.88;5018205;28;20477;-77
2023/08/01 08:55:26;;;;;;;2.50;2.30;;;;;;;17.55;84.57;96705.41;5021112;28;20458;-77
2023/08/01 08:57:54;;;;;;;2.67;2.47;;;;;;;17.61;84.80;96710.59;5019771;28;20487;-76
2023/08/01 09:00:21;;;;;;;2.57;2.37;;;;;;;17.68;85.40;96699.38;5019307;28;20488;-76
2023/08/01 09:02:48;;;;;;;2.60;2.40;;;;;;;17.75;83.59;96705.38;5022966;28;20803;-76
2023/08/01 09:05:17;;;;;;;2.77;2.40;;;;;;;17.73;84.00;96716.63;5021785;28;21895;-77
2023/08/01 09:07:46;;;;;;;3.07;2.13;;;;;;;17.64;84.18;96717.44;5028812;28;20479;-77
2023/08/01 09:10:13;;;;;;;1.93;1.83;;;;;;;17.54;83.96;96717.50;5028930;28;20447;-77
2023/08/01 09:12:40;;;;;;;2.30;2.10;;;;;;;17.54;84.20;96717.50;5012007;28;20463;-77
2023/08/01 09:15:08;;;;;;;2.73;2.17;;;;;;;17.59;84.39;96707.31;5022474;28;20510;-77
2023/08/01 09:17:34;;;;;;;2.33;2.10;;;;;;;17.46;84.79;96724.34;5020476;28;20508;-77
2023/08/01 09:20:06;;;;;;;2.40;1.93;;;;;;;17.43;85.62;96725.72;5020088;28;20867;-77
2023/08/01 09:22:43;;;;;;;2.20;2.00;;;;;;;17.27;86.72;96732.31;5020427;28;20479;-77
2023/08/01 09:25:11;;;;;;;2.60;2.40;;;;;;;17.39;87.61;96727.38;5024721;28;21054;-77
2023/08/01 09:27:38;;;;;;;2.13;1.93;;;;;;;17.38;86.99;96728.47;5022849;28;20467;-78
2023/08/01 09:30:15;;;;;;;2.23;1.97;;;;;;;17.61;86.35;96726.19;5028119;28;20453;-76
2023/08/01 09:32:52;;;;;;;2.77;1.73;;;;;;;17.65;86.33;96722.66;5266003;23;20944;-73
2023/08/01 09:35:19;;;;;;;1.90;1.80;;;;;;;17.77;86.06;96736.03;4998348;28;20457;-81
2023/08/01 09:37:47;;;;;;;2.40;1.70;;;;;;;17.75;86.33;96730.84;5005332;28;20509;-81
2023/08/01 09:40:14;;;;;;;1.93;1.80;;;;;;;17.52;87.58;96738.84;5007470;28;20488;-83
2023/08/01 09:42:43;;;;;;;1.93;1.83;;;;;;;17.60;88.31;96741.78;5015429;28;20508;-83
2023/08/01 09:45:14;;;;;;;2.07;1.80;;;;;;;17.70;87.99;96751.94;5021247;28;21013;-82
2023/08/01 09:47:41;;;;;;;1.50;1.40;;;;;;;17.76;88.08;96740.69;5025726;28;21082;-82
2023/08/01 09:50:10;;;;;;;1.50;1.17;;;;;;;17.75;86.90;96754.66;5023040;28;20448;-82
2023/08/01 09:52:37;;;;;;;1.70;1.60;;;;;;;17.63;87.35;96748.63;5016976;28;20738;-82
2023/08/01 09:55:06;;;;;;;11.63;2.67;;;;;;;17.52;88.04;96749.78;5029325;28;20460;-82
2023/08/01 09:57:33;;;;;;;5.77;2.63;;;;;;;17.63;88.56;96749.44;5025160;28;21001;-83
2023/08/01 10:00:00;;;;;;;2.17;1.97;;;;;;;17.69;88.66;96744.81;5022744;28;20475;-82
2023/08/01 10:02:31;;;;;;;2.77;1.77;;;;;;;17.70;88.41;96751.94;5022793;28;20484;-82
2023/08/01 10:04:58;;;;;;;3.53;2.03;;;;;;;17.71;88.18;96748.09;5017322;28;20452;-82
2023/08/01 10:07:28;;;;;;;3.37;1.60;;;;;;;17.90;88.94;96757.31;4984778;28;20915;-82
2023/08/01 10:09:56;;;;;;;2.40;1.67;;;;;;;17.81;88.01;96769.97;5022872;28;20455;-82
2023/08/01 10:12:26;;;;;;;4.13;1.53;;;;;;;17.73;87.90;96767.78;5019504;28;21006;-82
2023/08/01 10:14:54;;;;;;;2.50;1.50;;;;;;;17.82;88.23;96777.06;5025074;28;20491;-82
2023/08/01 10:17:22;;;;;;;1.97;1.40;;;;;;;17.91;87.45;96775.38;5027307;28;20455;-82
2023/08/01 10:19:50;;;;;;;1.47;1.13;;;;;;;18.05;86.77;96770.94;5027735;28;20495;-82
2023/08/01 10:22:18;;;;;;;1.20;1.00;;;;;;;18.04;85.84;96769.31;5024389;28;20506;-82
2023/08/01 10:24:46;;;;;;;1.60;0.97;;;;;;;18.10;84.02;96759.97;5027652;28;20543;-83
2023/08/01 10:27:14;;;;;;;0.80;0.70;;;;;;;18.27;80.74;96761.50;5029112;28;20537;-81
2023/08/01 10:29:43;;;;;;;0.90;0.70;;;;;;;18.46;80.01;96767.97;5013961;28;20468;-81
2023/08/01 10:32:10;;;;;;;1.43;0.80;;;;;;;18.48;77.20;96782.22;5018717;28;20483;-82
2023/08/01 10:34:37;;;;;;;0.90;0.80;;;;;;;18.57;77.38;96779.69;5023258;28;20468;-81
2023/08/01 10:37:05;;;;;;;1.20;0.90;;;;;;;18.55;75.30;96773.66;5021477;28;20489;-81
2023/08/01 10:39:32;;;;;;;0.70;0.70;;;;;;;19.71;71.57;96771.88;5021574;28;20464;-81
2023/08/01 10:41:59;;;;;;;0.93;0.80;;;;;;;20.56;66.84;96780.13;5022350;28;21046;-81
2023/08/01 10:44:27;;;;;;;0.97;0.83;;;;;;;21.13;65.35;96778.94;5019055;28;20549;-81
2023/08/01 10:46:56;;;;;;;0.80;0.80;;;;;;;21.93;62.95;96774.22;5024772;28;20832;-81
2023/08/01 10:49:34;;;;;;;2.43;1.07;;;;;;;22.02;60.70;96773.25;5027422;28;20511;-81
2023/08/01 10:52:01;;;;;;;0.97;0.90;;;;;;;22.17;59.02;96785.06;5028634;28;20486;-81
2023/08/01 10:54:28;;;;;;;1.17;1.07;;;;;;;21.27;62.81;96772.72;5024045;28;20559;-81
2023/08/01 10:56:58;;;;;;;1.07;0.93;;;;;;;21.87;61.99;96772.69;5031116;28;20444;-81
2023/08/01 10:59:25;;;;;;;3.20;1.30;;;;;;;21.93;60.48;96755.75;5029737;28;20959;-81
2023/08/01 11:01:53;;;;;;;1.77;1.20;;;;;;;21.67;61.05;96784.94;5022959;28;20859;-81
2023/08/01 11:04:23;;;;;;;1.43;1.00;;;;;;;21.48;60.60;96779.47;5018868;28;20479;-81
2023/08/01 11:06:52;;;;;;;1.03;0.93;;;;;;;22.21;59.73;96783.31;5027184;28;20539;-81
2023/08/01 11:09:20;;;;;;;1.10;1.00;;;;;;;22.26;57.79;96789.56;5027280;28;20452;-81
2023/08/01 11:11:49;;;;;;;1.30;0.70;;;;;;;22.37;57.55;96781.88;5025191;28;20546;-81
2023/08/01 11:14:17;;;;;;;1.07;0.97;;;;;;;22.24;57.94;96780.78;5016563;28;20635;-81
2023/08/01 11:16:44;;;;;;;1.03;0.97;;;;;;;22.08;57.45;96796.81;5021552;28;20456;-81
2023/08/01 11:19:23;;;;;;;1.30;1.10;;;;;;;21.72;57.85;96796.66;5026339;28;20452;-81
2023/08/01 11:21:50;;;;;;;2.10;1.00;;;;;;;22.59;56.64;96797.66;5023887;28;21208;-81
2023/08/01 11:24:19;;;;;;;1.27;1.13;;;;;;;22.16;57.98;96784.25;5025745;28;20464;-80
2023/08/01 11:26:48;;;;;;;3.20;1.13;;;;;;;22.23;57.53;96795.69;5026814;28;20872;-81
2023/08/01 11:29:15;;;;;;;1.83;1.10;;;;;;;22.54;55.72;96823.41;5028085;28;20783;-81
2023/08/01 11:31:42;;;;;;;1.33;1.23;;;;;;;21.97;56.09;96803.63;5027651;28;20554;-81
2023/08/01 11:34:09;;;;;;;1.23;1.00;;;;;;;22.17;56.74;96810.69;5029994;28;21442;-81